sensor_id;sensor_type;location;lat;lon;timestamp;P1;durP1;ratioP1;P2;durP2;ratioP2
75356;SDS011;63946;51.986;5.930;2023-08-06T07:29:15;7.97;;;7.05;;
75356;SDS011;63946;51.986;5.930;2023-08-06T07:31:48;8.55;;;6.78;;
75356;SDS011;63946;51.986;5.930;2023-08-06T07:34:17;8.93;;;7.35;;
75356;SDS011;63946;51.986;5.930;2023-08-06T07:36:46;8.15;;;6.53;;
75356;SDS011;63946;51.986;5.930;2023-08-06T07:39:16;9.23;;;6.90;;
75356;SDS011;63946;51.986;5.930;2023-08-06T07:41:47;7.28;;;5.85;;
75356;SDS011;63946;51.986;5.930;2023-08-06T07:44:19;7.32;;;6.43;;
75356;SDS011;63946;51.986;5.930;2023-08-06T07:46:49;8.98;;;6.80;;
75356;SDS011;63946;51.986;5.930;2023-08-06T07:49:21;8.30;;;7.10;;
75356;SDS011;63946;51.986;5.930;2023-08-06T07:51:50;7.93;;;7.10;;
75356;SDS011;63946;51.986;5.930;2023-08-06T07:54:19;8.43;;;7.53;;
75356;SDS011;63946;51.986;5.930;2023-08-06T07:56:50;8.20;;;7.18;;
75356;SDS011;63946;51.986;5.930;2023-08-06T07:59:21;7.50;;;6.10;;
75356;SDS011;63946;51.986;5.930;2023-08-06T08:01:50;7.18;;;6.43;;
75356;SDS011;63946;51.986;5.930;2023-08-06T08:04:19;8.05;;;6.72;;
75356;SDS011;63946;51.986;5.930;2023-08-06T08:06:48;10.82;;;8.00;;
75356;SDS011;63946;51.986;5.930;2023-08-06T08:09:16;8.32;;;6.68;;
75356;SDS011;63946;51.986;5.930;2023-08-06T08:11:45;8.20;;;6.65;;
75356;SDS011;63946;51.986;5.930;2023-08-06T08:14:14;7.95;;;6.97;;
75356;SDS011;63946;51.986;5.930;2023-08-06T08:16:43;9.65;;;7.85;;
75356;SDS011;63946;51.986;5.930;2023-08-06T08:19:12;9.45;;;7.38;;
75356;SDS011;63946;51.986;5.930;2023-08-06T08:21:40;9.82;;;7.25;;
75356;SDS011;63946;51.986;5.930;2023-08-06T08:24:09;9.50;;;7.25;;
75356;SDS011;63946;51.986;5.930;2023-08-06T08:26:38;9.15;;;7.82;;
75356;SDS011;63946;51.986;5.930;2023-08-06T08:29:07;8.57;;;7.68;;
75356;SDS011;63946;51.986;5.930;2023-08-06T08:31:35;9.65;;;7.82;;
75356;SDS011;63946;51.986;5.930;2023-08-06T08:34:05;8.73;;;7.13;;
75356;SDS011;63946;51.986;5.930;2023-08-06T08:36:34;8.60;;;7.70;;
75356;SDS011;63946;51.986;5.930;2023-08-06T08:39:02;10.55;;;8.40;;
75356;SDS011;63946;51.986;5.930;2023-08-06T08:41:32;9.18;;;7.40;;
75356;SDS011;63946;51.986;5.930;2023-08-06T08:44:09;10.20;;;6.65;;
75356;SDS011;63946;51.986;5.930;2023-08-06T08:46:39;8.80;;;7.03;;
75356;SDS011;63946;51.986;5.930;2023-08-06T08:49:09;8.65;;;7.32;;
75356;SDS011;63946;51.986;5.930;2023-08-06T08:51:39;10.80;;;7.88;;
75356;SDS011;63946;51.986;5.930;2023-08-06T08:54:08;9.88;;;7.47;;
75356;SDS011;63946;51.986;5.930;2023-08-06T08:56:39;8.60;;;6.95;;
75356;SDS011;63946;51.986;5.930;2023-08-06T08:59:09;7.68;;;6.88;;
75356;SDS011;63946;51.986;5.930;2023-08-06T09:01:38;8.23;;;6.93;;
75356;SDS011;63946;51.986;5.930;2023-08-06T09:04:11;6.72;;;5.82;;
75356;SDS011;63946;51.986;5.930;2023-08-06T09:06:40;7.82;;;6.50;;
75356;SDS011;63946;51.986;5.930;2023-08-06T09:11:42;6.65;;;5.10;;
75356;SDS011;63946;51.986;5.930;2023-08-06T09:14:13;7.28;;;5.38;;
75356;SDS011;63946;51.986;5.930;2023-08-06T09:16:42;6.88;;;5.50;;
75356;SDS011;63946;51.986;5.930;2023-08-06T09:19:12;8.73;;;5.78;;
75356;SDS011;63946;51.986;5.930;2023-08-06T09:21:43;6.60;;;5.15;;
75356;SDS011;63946;51.986;5.930;2023-08-06T09:24:14;5.57;;;4.97;;
75356;SDS011;63946;51.986;5.930;2023-08-06T09:26:44;7.97;;;5.97;;
75356;SDS011;63946;51.986;5.930;2023-08-06T09:29:13;7.40;;;6.20;;
75356;SDS011;63946;51.986;5.930;2023-08-06T09:31:46;6.50;;;5.00;;
75356;SDS011;63946;51.986;5.930;2023-08-06T09:34:18;5.47;;;4.95;;
75356;SDS011;63946;51.986;5.930;2023-08-06T09:36:49;6.28;;;5.15;;
75356;SDS011;63946;51.986;5.930;2023-08-06T09:39:20;6.10;;;5.20;;
75356;SDS011;63946;51.986;5.930;2023-08-06T09:41:59;6.75;;;5.65;;
75356;SDS011;63946;51.986;5.930;2023-08-06T09:44:30;5.93;;;4.75;;
75356;SDS011;63946;51.986;5.930;2023-08-06T09:47:05;5.93;;;4.35;;
75356;SDS011;63946;51.986;5.930;2023-08-06T09:49:41;6.85;;;4.80;;
75356;SDS011;63946;51.986;5.930;2023-08-06T09:52:12;6.38;;;4.93;;
75356;SDS011;63946;51.986;5.930;2023-08-06T09:54:43;7.63;;;4.50;;
75356;SDS011;63946;51.986;5.930;2023-08-06T09:57:12;7.40;;;5.45;;
75356;SDS011;63946;51.986;5.930;2023-08-06T09:59:42;5.75;;;5.15;;
75356;SDS011;63946;51.986;5.930;2023-08-06T10:02:13;6.10;;;5.38;;
75356;SDS011;63946;51.986;5.930;2023-08-06T10:04:44;6.90;;;5.40;;
75356;SDS011;63946;51.986;5.930;2023-08-06T10:07:13;5.60;;;5.03;;
75356;SDS011;63946;51.986;5.930;2023-08-06T10:09:44;5.40;;;4.90;;
75356;SDS011;63946;51.986;5.930;2023-08-06T10:12:12;6.40;;;5.72;;
75356;SDS011;63946;51.986;5.930;2023-08-06T10:14:43;6.78;;;5.38;;
75356;SDS011;63946;51.986;5.930;2023-08-06T10:17:14;10.27;;;5.72;;
75356;SDS011;63946;51.986;5.930;2023-08-06T10:19:44;7.38;;;5.35;;
75356;SDS011;63946;51.986;5.930;2023-08-06T10:22:14;7.35;;;5.72;;
75356;SDS011;63946;51.986;5.930;2023-08-06T10:24:56;8.15;;;6.22;;
75356;SDS011;63946;51.986;5.930;2023-08-06T10:27:34;7.30;;;6.18;;
75356;SDS011;63946;51.986;5.930;2023-08-06T10:30:23;9.25;;;6.80;;
75356;SDS011;63946;51.986;5.930;2023-08-06T10:32:55;11.18;;;9.00;;
75356;SDS011;63946;51.986;5.930;2023-08-06T10:35:44;12.75;;;8.70;;
75356;SDS011;63946;51.986;5.930;2023-08-06T10:38:33;8.20;;;7.15;;
75356;SDS011;63946;51.986;5.930;2023-08-06T10:41:03;7.85;;;5.75;;
75356;SDS011;63946;51.986;5.930;2023-08-06T10:43:33;4.15;;;3.15;;
75356;SDS011;63946;51.986;5.930;2023-08-06T10:46:13;3.13;;;2.00;;
75356;SDS011;63946;51.986;5.930;2023-08-06T10:48:55;1.83;;;1.73;;
75356;SDS011;63946;51.986;5.930;2023-08-06T10:51:23;1.50;;;1.15;;
75356;SDS011;63946;51.986;5.930;2023-08-06T10:53:53;1.95;;;0.95;;
75356;SDS011;63946;51.986;5.930;2023-08-06T10:58:53;3.00;;;1.13;;
75356;SDS011;63946;51.986;5.930;2023-08-06T11:01:24;1.42;;;0.90;;
75356;SDS011;63946;51.986;5.930;2023-08-06T11:04:00;1.40;;;0.90;;
75356;SDS011;63946;51.986;5.930;2023-08-06T11:06:30;4.55;;;1.00;;
75356;SDS011;63946;51.986;5.930;2023-08-06T11:08:59;2.10;;;0.88;;
75356;SDS011;63946;51.986;5.930;2023-08-06T11:11:29;1.00;;;0.80;;
75356;SDS011;63946;51.986;5.930;2023-08-06T11:13:58;1.83;;;0.80;;
75356;SDS011;63946;51.986;5.930;2023-08-06T11:16:27;1.30;;;1.00;;
75356;SDS011;63946;51.986;5.930;2023-08-06T11:18:56;2.20;;;1.10;;
75356;SDS011;63946;51.986;5.930;2023-08-06T11:21:25;2.38;;;1.35;;
75356;SDS011;63946;51.986;5.930;2023-08-06T11:23:55;4.72;;;1.13;;
75356;SDS011;63946;51.986;5.930;2023-08-06T11:26:24;1.10;;;0.90;;
75356;SDS011;63946;51.986;5.930;2023-08-06T11:28:53;1.40;;;1.00;;
75356;SDS011;63946;51.986;5.930;2023-08-06T11:31:22;2.08;;;1.20;;
75356;SDS011;63946;51.986;5.930;2023-08-06T11:33:54;2.65;;;1.27;;
75356;SDS011;63946;51.986;5.930;2023-08-06T11:38:59;3.22;;;1.42;;
75356;SDS011;63946;51.986;5.930;2023-08-06T11:41:31;3.08;;;1.50;;
75356;SDS011;63946;51.986;5.930;2023-08-06T11:44:03;2.60;;;2.10;;
75356;SDS011;63946;51.986;5.930;2023-08-06T11:55:05;2.63;;;1.60;;
75356;SDS011;63946;51.986;5.930;2023-08-06T11:57:38;3.92;;;1.48;;
75356;SDS011;63946;51.986;5.930;2023-08-06T12:00:14;1.83;;;1.25;;
75356;SDS011;63946;51.986;5.930;2023-08-06T12:02:44;2.25;;;1.30;;
75356;SDS011;63946;51.986;5.930;2023-08-06T12:05:15;5.32;;;1.58;;
75356;SDS011;63946;51.986;5.930;2023-08-06T12:07:48;2.95;;;1.38;;
75356;SDS011;63946;51.986;5.930;2023-08-06T12:10:18;2.63;;;1.45;;
75356;SDS011;63946;51.986;5.930;2023-08-06T12:12:48;2.42;;;1.50;;
75356;SDS011;63946;51.986;5.930;2023-08-06T12:15:18;2.47;;;1.83;;
75356;SDS011;63946;51.986;5.930;2023-08-06T12:17:47;2.92;;;1.90;;
75356;SDS011;63946;51.986;5.930;2023-08-06T12:20:18;4.43;;;1.73;;
75356;SDS011;63946;51.986;5.930;2023-08-06T12:22:47;1.92;;;1.50;;
75356;SDS011;63946;51.986;5.930;2023-08-06T12:25:16;3.70;;;2.13;;
75356;SDS011;63946;51.986;5.930;2023-08-06T12:27:45;5.00;;;1.58;;
75356;SDS011;63946;51.986;5.930;2023-08-06T12:30:14;2.70;;;1.83;;
75356;SDS011;63946;51.986;5.930;2023-08-06T12:32:43;3.38;;;1.83;;
75356;SDS011;63946;51.986;5.930;2023-08-06T12:35:13;2.47;;;1.70;;
75356;SDS011;63946;51.986;5.930;2023-08-06T12:37:41;4.60;;;2.50;;
75356;SDS011;63946;51.986;5.930;2023-08-06T12:40:11;2.30;;;1.65;;
75356;SDS011;63946;51.986;5.930;2023-08-06T12:42:41;4.18;;;1.65;;
75356;SDS011;63946;51.986;5.930;2023-08-06T12:45:09;3.05;;;1.65;;
75356;SDS011;63946;51.986;5.930;2023-08-06T12:47:38;6.57;;;1.75;;
75356;SDS011;63946;51.986;5.930;2023-08-06T12:50:07;3.13;;;1.52;;
75356;SDS011;63946;51.986;5.930;2023-08-06T12:52:36;4.45;;;2.22;;
75356;SDS011;63946;51.986;5.930;2023-08-06T12:55:05;3.40;;;2.00;;
75356;SDS011;63946;51.986;5.930;2023-08-06T12:57:34;2.78;;;2.00;;
75356;SDS011;63946;51.986;5.930;2023-08-06T13:00:03;6.55;;;2.00;;
75356;SDS011;63946;51.986;5.930;2023-08-06T13:02:32;3.13;;;2.10;;
75356;SDS011;63946;51.986;5.930;2023-08-06T13:05:00;3.10;;;1.75;;
75356;SDS011;63946;51.986;5.930;2023-08-06T13:07:31;2.88;;;1.90;;
75356;SDS011;63946;51.986;5.930;2023-08-06T13:10:03;4.90;;;2.40;;
75356;SDS011;63946;51.986;5.930;2023-08-06T13:12:32;4.28;;;2.00;;
75356;SDS011;63946;51.986;5.930;2023-08-06T13:15:03;2.55;;;2.05;;
75356;SDS011;63946;51.986;5.930;2023-08-06T13:17:37;3.88;;;2.05;;
75356;SDS011;63946;51.986;5.930;2023-08-06T13:20:06;3.53;;;1.80;;
75356;SDS011;63946;51.986;5.930;2023-08-06T13:22:35;4.30;;;1.67;;
75356;SDS011;63946;51.986;5.930;2023-08-06T13:25:04;2.83;;;1.95;;
75356;SDS011;63946;51.986;5.930;2023-08-06T13:27:34;3.70;;;1.83;;
75356;SDS011;63946;51.986;5.930;2023-08-06T13:30:03;4.03;;;2.38;;
75356;SDS011;63946;51.986;5.930;2023-08-06T13:32:32;3.63;;;1.83;;
75356;SDS011;63946;51.986;5.930;2023-08-06T13:35:10;5.50;;;2.03;;
75356;SDS011;63946;51.986;5.930;2023-08-06T13:37:38;3.47;;;2.00;;
75356;SDS011;63946;51.986;5.930;2023-08-06T13:40:07;4.13;;;1.92;;
75356;SDS011;63946;51.986;5.930;2023-08-06T13:42:36;3.08;;;1.63;;
75356;SDS011;63946;51.986;5.930;2023-08-06T13:45:09;3.70;;;1.88;;
75356;SDS011;63946;51.986;5.930;2023-08-06T13:47:38;2.85;;;2.10;;
75356;SDS011;63946;51.986;5.930;2023-08-06T13:50:07;2.55;;;1.75;;
75356;SDS011;63946;51.986;5.930;2023-08-06T13:52:36;3.45;;;2.00;;
75356;SDS011;63946;51.986;5.930;2023-08-06T13:55:05;2.40;;;1.65;;
75356;SDS011;63946;51.986;5.930;2023-08-06T13:57:34;3.42;;;2.20;;
75356;SDS011;63946;51.986;5.930;2023-08-06T14:00:03;3.08;;;1.63;;
75356;SDS011;63946;51.986;5.930;2023-08-06T14:02:38;2.80;;;1.50;;
75356;SDS011;63946;51.986;5.930;2023-08-06T14:05:09;2.50;;;1.80;;
75356;SDS011;63946;51.986;5.930;2023-08-06T14:07:38;2.97;;;1.90;;
75356;SDS011;63946;51.986;5.930;2023-08-06T14:10:08;3.40;;;1.85;;
75356;SDS011;63946;51.986;5.930;2023-08-06T14:12:37;2.95;;;1.92;;
75356;SDS011;63946;51.986;5.930;2023-08-06T14:15:06;3.67;;;1.52;;
75356;SDS011;63946;51.986;5.930;2023-08-06T14:17:35;3.08;;;1.73;;
75356;SDS011;63946;51.986;5.930;2023-08-06T14:20:07;3.85;;;1.80;;
75356;SDS011;63946;51.986;5.930;2023-08-06T14:22:37;4.28;;;2.13;;
75356;SDS011;63946;51.986;5.930;2023-08-06T14:25:06;3.22;;;2.20;;
75356;SDS011;63946;51.986;5.930;2023-08-06T14:27:35;2.47;;;1.67;;
75356;SDS011;63946;51.986;5.930;2023-08-06T14:30:07;4.00;;;1.90;;
75356;SDS011;63946;51.986;5.930;2023-08-06T14:32:36;3.42;;;1.77;;
75356;SDS011;63946;51.986;5.930;2023-08-06T14:35:05;5.75;;;2.20;;
75356;SDS011;63946;51.986;5.930;2023-08-06T14:37:37;3.70;;;1.92;;
75356;SDS011;63946;51.986;5.930;2023-08-06T14:40:06;7.47;;;2.40;;
75356;SDS011;63946;51.986;5.930;2023-08-06T14:42:36;4.50;;;2.17;;
75356;SDS011;63946;51.986;5.930;2023-08-06T14:45:05;3.50;;;2.20;;
75356;SDS011;63946;51.986;5.930;2023-08-06T14:47:34;4.05;;;2.80;;
75356;SDS011;63946;51.986;5.930;2023-08-06T14:50:03;3.83;;;1.95;;
75356;SDS011;63946;51.986;5.930;2023-08-06T14:52:32;5.43;;;2.20;;
75356;SDS011;63946;51.986;5.930;2023-08-06T14:55:01;3.08;;;2.40;;
75356;SDS011;63946;51.986;5.930;2023-08-06T14:57:31;3.85;;;2.10;;
75356;SDS011;63946;51.986;5.930;2023-08-06T15:00:00;4.18;;;2.78;;
75356;SDS011;63946;51.986;5.930;2023-08-06T15:02:29;3.05;;;2.40;;
75356;SDS011;63946;51.986;5.930;2023-08-06T15:04:58;3.85;;;2.42;;
75356;SDS011;63946;51.986;5.930;2023-08-06T15:07:27;3.17;;;2.42;;
75356;SDS011;63946;51.986;5.930;2023-08-06T15:09:58;2.92;;;2.13;;
75356;SDS011;63946;51.986;5.930;2023-08-06T15:12:28;3.00;;;2.20;;
75356;SDS011;63946;51.986;5.930;2023-08-06T15:14:57;3.78;;;2.10;;
75356;SDS011;63946;51.986;5.930;2023-08-06T15:19:56;3.70;;;2.20;;
75356;SDS011;63946;51.986;5.930;2023-08-06T15:22:25;3.17;;;2.67;;
75356;SDS011;63946;51.986;5.930;2023-08-06T15:24:57;3.38;;;2.25;;
75356;SDS011;63946;51.986;5.930;2023-08-06T15:27:26;6.78;;;3.22;;
75356;SDS011;63946;51.986;5.930;2023-08-06T15:29:55;6.63;;;2.95;;
75356;SDS011;63946;51.986;5.930;2023-08-06T15:32:23;5.28;;;2.92;;
75356;SDS011;63946;51.986;5.930;2023-08-06T15:34:53;4.88;;;2.53;;
75356;SDS011;63946;51.986;5.930;2023-08-06T15:37:22;3.70;;;2.67;;
75356;SDS011;63946;51.986;5.930;2023-08-06T15:39:55;5.43;;;2.63;;
75356;SDS011;63946;51.986;5.930;2023-08-06T15:42:24;3.97;;;2.50;;
75356;SDS011;63946;51.986;5.930;2023-08-06T15:44:55;5.53;;;3.42;;
75356;SDS011;63946;51.986;5.930;2023-08-06T15:47:23;7.35;;;3.58;;
75356;SDS011;63946;51.986;5.930;2023-08-06T15:49:55;3.85;;;3.00;;
75356;SDS011;63946;51.986;5.930;2023-08-06T15:52:26;5.15;;;3.03;;
75356;SDS011;63946;51.986;5.930;2023-08-06T15:54:55;3.47;;;2.72;;
75356;SDS011;63946;51.986;5.930;2023-08-06T15:57:32;3.40;;;2.65;;
75356;SDS011;63946;51.986;5.930;2023-08-06T16:00:04;5.32;;;2.47;;
75356;SDS011;63946;51.986;5.930;2023-08-06T16:02:42;5.10;;;3.28;;
75356;SDS011;63946;51.986;5.930;2023-08-06T16:05:10;4.72;;;2.92;;
75356;SDS011;63946;51.986;5.930;2023-08-06T16:07:39;5.07;;;2.97;;
75356;SDS011;63946;51.986;5.930;2023-08-06T16:10:10;3.22;;;1.92;;
75356;SDS011;63946;51.986;5.930;2023-08-06T16:12:39;4.88;;;1.85;;
75356;SDS011;63946;51.986;5.930;2023-08-06T16:15:08;5.32;;;1.55;;
75356;SDS011;63946;51.986;5.930;2023-08-06T16:17:38;4.22;;;1.88;;
75356;SDS011;63946;51.986;5.930;2023-08-06T16:20:07;3.22;;;1.50;;
75356;SDS011;63946;51.986;5.930;2023-08-06T16:22:36;3.90;;;1.77;;
75356;SDS011;63946;51.986;5.930;2023-08-06T16:25:05;4.72;;;1.60;;
75356;SDS011;63946;51.986;5.930;2023-08-06T16:27:38;3.05;;;1.40;;
75356;SDS011;63946;51.986;5.930;2023-08-06T16:30:07;4.07;;;1.33;;
75356;SDS011;63946;51.986;5.930;2023-08-06T16:32:36;4.82;;;1.65;;
75356;SDS011;63946;51.986;5.930;2023-08-06T16:35:05;4.90;;;1.45;;
75356;SDS011;63946;51.986;5.930;2023-08-06T16:37:35;4.00;;;1.20;;
75356;SDS011;63946;51.986;5.930;2023-08-06T16:40:05;7.60;;;1.40;;
75356;SDS011;63946;51.986;5.930;2023-08-06T16:42:34;5.82;;;1.50;;
75356;SDS011;63946;51.986;5.930;2023-08-06T16:45:03;2.15;;;0.75;;
75356;SDS011;63946;51.986;5.930;2023-08-06T16:47:33;1.38;;;0.93;;
75356;SDS011;63946;51.986;5.930;2023-08-06T16:50:02;8.07;;;1.75;;
75356;SDS011;63946;51.986;5.930;2023-08-06T16:52:32;3.00;;;0.88;;
75356;SDS011;63946;51.986;5.930;2023-08-06T16:55:00;3.15;;;0.82;;
75356;SDS011;63946;51.986;5.930;2023-08-06T16:57:29;2.72;;;1.30;;
75356;SDS011;63946;51.986;5.930;2023-08-06T16:59:58;3.65;;;1.10;;
75356;SDS011;63946;51.986;5.930;2023-08-06T17:02:27;4.07;;;1.10;;
75356;SDS011;63946;51.986;5.930;2023-08-06T17:04:56;4.00;;;0.93;;
75356;SDS011;63946;51.986;5.930;2023-08-06T17:07:25;2.10;;;1.10;;
75356;SDS011;63946;51.986;5.930;2023-08-06T17:09:54;5.07;;;0.98;;
75356;SDS011;63946;51.986;5.930;2023-08-06T17:12:26;4.70;;;1.23;;
75356;SDS011;63946;51.986;5.930;2023-08-06T17:14:54;2.38;;;0.90;;
75356;SDS011;63946;51.986;5.930;2023-08-06T17:17:25;2.50;;;0.70;;
75356;SDS011;63946;51.986;5.930;2023-08-06T17:19:54;2.20;;;0.70;;
75356;SDS011;63946;51.986;5.930;2023-08-06T17:22:23;4.25;;;1.17;;
75356;SDS011;63946;51.986;5.930;2023-08-06T17:24:52;3.03;;;0.70;;
75356;SDS011;63946;51.986;5.930;2023-08-06T17:27:26;3.58;;;0.80;;
75356;SDS011;63946;51.986;5.930;2023-08-06T17:29:55;4.78;;;1.10;;
75356;SDS011;63946;51.986;5.930;2023-08-06T17:32:26;3.40;;;0.90;;
75356;SDS011;63946;51.986;5.930;2023-08-06T17:34:55;4.50;;;0.70;;
75356;SDS011;63946;51.986;5.930;2023-08-06T17:37:23;3.58;;;0.95;;
75356;SDS011;63946;51.986;5.930;2023-08-06T17:39:55;3.75;;;0.95;;
75356;SDS011;63946;51.986;5.930;2023-08-06T17:42:23;5.50;;;0.98;;
75356;SDS011;63946;51.986;5.930;2023-08-06T17:44:55;4.72;;;1.33;;
75356;SDS011;63946;51.986;5.930;2023-08-06T17:47:24;1.90;;;0.75;;
75356;SDS011;63946;51.986;5.930;2023-08-06T17:49:58;4.50;;;1.10;;
75356;SDS011;63946;51.986;5.930;2023-08-06T17:52:27;4.20;;;1.33;;
75356;SDS011;63946;51.986;5.930;2023-08-06T17:54:56;2.78;;;0.90;;
75356;SDS011;63946;51.986;5.930;2023-08-06T17:57:24;6.18;;;1.15;;
75356;SDS011;63946;51.986;5.930;2023-08-06T17:59:58;3.75;;;1.33;;
75356;SDS011;63946;51.986;5.930;2023-08-06T18:02:37;4.85;;;0.73;;
75356;SDS011;63946;51.986;5.930;2023-08-06T18:05:06;2.78;;;1.05;;
75356;SDS011;63946;51.986;5.930;2023-08-06T18:07:45;2.45;;;0.93;;
75356;SDS011;63946;51.986;5.930;2023-08-06T18:10:18;5.57;;;1.38;;
75356;SDS011;63946;51.986;5.930;2023-08-06T18:12:47;2.40;;;0.90;;
75356;SDS011;63946;51.986;5.930;2023-08-06T18:15:16;7.45;;;1.20;;
75356;SDS011;63946;51.986;5.930;2023-08-06T18:17:46;4.10;;;0.93;;
75356;SDS011;63946;51.986;5.930;2023-08-06T18:20:14;2.92;;;0.93;;
75356;SDS011;63946;51.986;5.930;2023-08-06T18:22:43;3.28;;;0.82;;
75356;SDS011;63946;51.986;5.930;2023-08-06T18:25:18;5.00;;;1.25;;
75356;SDS011;63946;51.986;5.930;2023-08-06T18:27:48;4.43;;;1.00;;
75356;SDS011;63946;51.986;5.930;2023-08-06T18:30:25;3.22;;;0.90;;
75356;SDS011;63946;51.986;5.930;2023-08-06T18:32:54;4.25;;;0.90;;
75356;SDS011;63946;51.986;5.930;2023-08-06T18:35:27;4.13;;;1.00;;
75356;SDS011;63946;51.986;5.930;2023-08-06T18:37:58;3.45;;;1.17;;
75356;SDS011;63946;51.986;5.930;2023-08-06T18:40:27;4.30;;;1.15;;
75356;SDS011;63946;51.986;5.930;2023-08-06T18:43:01;3.83;;;1.50;;
75356;SDS011;63946;51.986;5.930;2023-08-06T18:45:33;6.57;;;0.90;;
75356;SDS011;63946;51.986;5.930;2023-08-06T18:48:05;4.38;;;1.38;;
75356;SDS011;63946;51.986;5.930;2023-08-06T18:50:37;4.32;;;1.20;;
75356;SDS011;63946;51.986;5.930;2023-08-06T18:53:10;4.43;;;1.20;;
75356;SDS011;63946;51.986;5.930;2023-08-06T18:55:49;2.15;;;1.08;;
75356;SDS011;63946;51.986;5.930;2023-08-06T18:58:24;4.60;;;0.90;;
75356;SDS011;63946;51.986;5.930;2023-08-06T19:00:56;4.32;;;1.42;;
75356;SDS011;63946;51.986;5.930;2023-08-06T19:03:28;5.00;;;1.38;;
75356;SDS011;63946;51.986;5.930;2023-08-06T19:05:58;3.55;;;1.13;;
75356;SDS011;63946;51.986;5.930;2023-08-06T19:08:31;5.45;;;1.20;;
75356;SDS011;63946;51.986;5.930;2023-08-06T19:11:05;3.08;;;1.02;;
75356;SDS011;63946;51.986;5.930;2023-08-06T19:13:34;6.28;;;1.27;;
75356;SDS011;63946;51.986;5.930;2023-08-06T19:16:05;3.63;;;1.13;;
75356;SDS011;63946;51.986;5.930;2023-08-06T19:18:36;4.47;;;1.20;;
75356;SDS011;63946;51.986;5.930;2023-08-06T19:21:05;5.35;;;1.25;;
75356;SDS011;63946;51.986;5.930;2023-08-06T19:23:34;3.28;;;1.10;;
75356;SDS011;63946;51.986;5.930;2023-08-06T19:26:11;4.72;;;1.00;;
75356;SDS011;63946;51.986;5.930;2023-08-06T19:28:42;4.60;;;1.52;;
75356;SDS011;63946;51.986;5.930;2023-08-06T19:31:14;5.55;;;1.80;;
75356;SDS011;63946;51.986;5.930;2023-08-06T19:33:45;3.05;;;1.20;;
75356;SDS011;63946;51.986;5.930;2023-08-06T19:36:20;5.03;;;1.15;;
75356;SDS011;63946;51.986;5.930;2023-08-06T19:38:51;6.30;;;1.58;;
75356;SDS011;63946;51.986;5.930;2023-08-06T19:41:23;3.55;;;0.95;;
75356;SDS011;63946;51.986;5.930;2023-08-06T19:43:52;5.53;;;1.25;;
75356;SDS011;63946;51.986;5.930;2023-08-06T19:46:24;7.07;;;2.80;;
75356;SDS011;63946;51.986;5.930;2023-08-06T19:48:56;4.40;;;3.15;;
75356;SDS011;63946;51.986;5.930;2023-08-06T19:51:32;8.13;;;4.05;;
75356;SDS011;63946;51.986;5.930;2023-08-06T19:54:05;7.55;;;3.13;;
75356;SDS011;63946;51.986;5.930;2023-08-06T19:56:36;5.93;;;2.03;;
75356;SDS011;63946;51.986;5.930;2023-08-06T19:59:05;5.78;;;1.63;;
75356;SDS011;63946;51.986;5.930;2023-08-06T20:01:35;3.63;;;0.95;;
75356;SDS011;63946;51.986;5.930;2023-08-06T20:04:04;1.73;;;0.90;;
75356;SDS011;63946;51.986;5.930;2023-08-06T20:06:34;2.95;;;1.10;;
75356;SDS011;63946;51.986;5.930;2023-08-06T20:09:07;2.58;;;0.80;;
75356;SDS011;63946;51.986;5.930;2023-08-06T20:14:27;4.93;;;1.25;;
75356;SDS011;63946;51.986;5.930;2023-08-06T20:16:56;1.85;;;1.10;;
75356;SDS011;63946;51.986;5.930;2023-08-06T20:19:27;3.92;;;1.10;;
75356;SDS011;63946;51.986;5.930;2023-08-06T20:21:57;2.33;;;0.98;;
75356;SDS011;63946;51.986;5.930;2023-08-06T20:24:26;4.40;;;0.90;;
75356;SDS011;63946;51.986;5.930;2023-08-06T20:26:55;3.45;;;1.40;;
75356;SDS011;63946;51.986;5.930;2023-08-06T20:31:54;3.63;;;0.98;;
75356;SDS011;63946;51.986;5.930;2023-08-06T20:34:23;2.05;;;0.90;;
75356;SDS011;63946;51.986;5.930;2023-08-06T20:36:52;4.90;;;1.10;;
